Weather at Ambri Airport

Public forecast

Using degrees Celsius for public forecast. Weather courtesy of forecast.io.

Closest aviation weather report (METAR) to Ambri Airport

Report is more than 2 hours old.

Closest report is Locarno Airport, 22.5 nm (41.7 km) SSE. Retrieved 2020/11/26 19:20 UTC (2 hours ago):

LSZL 261920Z AUTO 00000KT 9999NDV NCD 00/M00 Q1024 RMK

Closest aviation forecast (TAF) to Ambri Airport

Closest forecast is Meiringen Airport, 27.6 nm (51.2 km) WNW. Retrieved 2020/11/26 17:00 UTC (5 hours ago):

TAF LSMM 261625Z 2617/2723 VRB03KT CAVOK BECMG 2617/2619 8000 NSC PROB40 2619/2706 0600 FZFG VV002 BECMG 2707/2709 CAVOK PROB30 2711/2716 7000 SCT005 BECMG 2717/2719 8000 NSC PROB40 2719/2723 0600 FZFG VV002